createdAt,value
2022-08-07T00:00:12.928Z,40.94
2022-08-07T00:02:44.556Z,41.38
2022-08-07T00:05:14.197Z,41.75
2022-08-07T00:07:43.624Z,41.61
2022-08-07T00:10:26.643Z,41.70
2022-08-07T00:13:01.176Z,42.17
2022-08-07T00:15:37.863Z,41.73
2022-08-07T00:18:18.726Z,42.15
2022-08-07T00:20:49.737Z,42.27
2022-08-07T00:23:21.462Z,42.20
2022-08-07T00:25:59.285Z,42.04
2022-08-07T00:28:31.783Z,42.30
2022-08-07T00:31:06.238Z,42.58
2022-08-07T00:33:37.615Z,43.12
2022-08-07T00:36:07.910Z,43.62
2022-08-07T00:38:37.448Z,43.35
2022-08-07T00:41:14.841Z,43.59
2022-08-07T00:43:59.244Z,43.82
2022-08-07T00:46:32.974Z,43.78
2022-08-07T00:49:03.653Z,44.06
2022-08-07T00:51:56.711Z,43.66
2022-08-07T00:54:23.183Z,43.97
2022-08-07T00:56:55.431Z,43.84
2022-08-07T00:59:35.491Z,44.17
2022-08-07T01:02:08.876Z,44.46
2022-08-07T01:04:43.173Z,44.73
2022-08-07T01:07:13.594Z,44.40
2022-08-07T01:10:06.513Z,44.45
2022-08-07T01:12:35.564Z,44.53
2022-08-07T01:15:05.938Z,44.76
2022-08-07T01:17:35.514Z,44.96
2022-08-07T01:20:08.026Z,45.15
2022-08-07T01:22:47.001Z,45.26
2022-08-07T01:25:54.059Z,45.33
2022-08-07T01:28:21.581Z,45.37
2022-08-07T01:30:54.802Z,45.70
2022-08-07T01:33:54.029Z,45.63
2022-08-07T01:36:17.844Z,45.80
2022-08-07T01:38:51.254Z,45.98
2022-08-07T01:41:26.220Z,46.29
2022-08-07T01:43:59.395Z,46.36
2022-08-07T01:46:32.305Z,46.18
2022-08-07T01:49:02.385Z,46.46
2022-08-07T01:52:01.088Z,46.97
2022-08-07T01:54:36.400Z,47.29
2022-08-07T01:57:24.434Z,47.02
2022-08-07T02:00:03.122Z,47.22
2022-08-07T02:03:18.471Z,46.87
2022-08-07T02:05:48.267Z,46.87
2022-08-07T02:08:28.182Z,46.95
2022-08-07T02:11:03.517Z,47.12
2022-08-07T02:13:56.558Z,46.92
2022-08-07T02:16:28.809Z,47.17
2022-08-07T02:19:05.361Z,47.64
2022-08-07T02:21:57.691Z,48.10
2022-08-07T02:24:29.708Z,48.05
2022-08-07T02:27:03.712Z,47.98
2022-08-07T02:29:43.570Z,48.19
2022-08-07T02:32:19.174Z,48.76
2022-08-07T02:34:53.914Z,48.80
2022-08-07T02:37:28.367Z,48.70
2022-08-07T02:40:29.914Z,48.87
2022-08-07T02:43:00.629Z,48.30
2022-08-07T02:45:58.547Z,48.88
2022-08-07T02:48:20.615Z,49.06
2022-08-07T02:50:53.109Z,48.64
2022-08-07T02:53:27.421Z,48.85
2022-08-07T02:56:04.286Z,48.87
2022-08-07T02:58:39.799Z,48.71
2022-08-07T03:01:19.172Z,48.66
2022-08-07T03:04:12.339Z,49.82
2022-08-07T03:06:44.677Z,49.48
2022-08-07T03:09:43.912Z,49.73
2022-08-07T03:12:06.650Z,50.02
2022-08-07T03:14:41.940Z,49.89
2022-08-07T03:17:18.913Z,49.46
2022-08-07T03:19:54.799Z,49.82
2022-08-07T03:22:29.498Z,49.72
2022-08-07T03:25:01.488Z,50.03
2022-08-07T03:27:59.505Z,49.39
2022-08-07T03:30:32.802Z,49.53
2022-08-07T03:33:04.593Z,50.10
2022-08-07T03:35:43.711Z,50.44
2022-08-07T03:38:21.243Z,50.78
2022-08-07T03:40:57.141Z,51.02
2022-08-07T03:43:32.282Z,51.03
2022-08-07T03:46:18.263Z,50.61
2022-08-07T03:49:02.421Z,51.04
2022-08-07T03:51:47.942Z,50.93
2022-08-07T03:54:36.022Z,51.12
2022-08-07T03:58:35.251Z,51.41
2022-08-07T04:03:04.447Z,51.18
2022-08-07T04:05:40.212Z,51.33
2022-08-07T04:08:16.000Z,51.82
2022-08-07T04:10:54.044Z,51.81
2022-08-07T04:14:09.423Z,51.60
2022-08-07T04:16:30.963Z,51.73
2022-08-07T04:19:14.664Z,51.70
2022-08-07T04:22:05.485Z,51.59
2022-08-07T04:24:42.824Z,51.65
2022-08-07T04:27:25.387Z,51.64
2022-08-07T04:30:02.620Z,52.12
2022-08-07T04:32:47.880Z,51.96
2022-08-07T04:35:21.857Z,51.90
2022-08-07T04:38:06.436Z,52.43
2022-08-07T04:40:44.097Z,52.27
2022-08-07T04:44:10.451Z,52.43
2022-08-07T04:46:34.542Z,51.86
2022-08-07T04:49:17.652Z,51.68
2022-08-07T04:51:58.535Z,52.11
2022-08-07T04:54:34.122Z,52.11
2022-08-07T04:58:11.510Z,51.73
2022-08-07T05:00:12.491Z,52.03
2022-08-07T05:02:51.508Z,52.15
2022-08-07T05:05:52.617Z,51.74
2022-08-07T05:08:59.074Z,51.99
2022-08-07T05:11:19.411Z,51.74
2022-08-07T05:14:55.794Z,51.82
2022-08-07T05:16:52.631Z,51.41
2022-08-07T05:19:44.096Z,51.47
2022-08-07T05:22:26.682Z,51.36
2022-08-07T05:25:02.345Z,51.62
2022-08-07T05:28:16.030Z,51.16
2022-08-07T05:30:32.373Z,50.50
2022-08-07T05:33:04.654Z,50.84
2022-08-07T05:35:42.118Z,50.40
2022-08-07T05:38:58.332Z,50.32
2022-08-07T05:41:14.137Z,49.80
2022-08-07T05:44:08.271Z,48.96
2022-08-07T05:46:40.066Z,48.97
2022-08-07T05:49:14.375Z,48.20
2022-08-07T05:51:47.664Z,47.71
2022-08-07T05:54:31.538Z,47.97
2022-08-07T05:57:20.635Z,47.30
2022-08-07T05:59:56.004Z,47.21
2022-08-07T06:02:30.668Z,46.89
2022-08-07T06:05:05.972Z,46.24
2022-08-07T06:08:13.569Z,46.24
2022-08-07T06:10:28.241Z,46.05
2022-08-07T06:13:00.669Z,46.34
2022-08-07T06:15:39.091Z,46.00
2022-08-07T06:18:14.494Z,45.50
2022-08-07T06:20:50.496Z,44.94
2022-08-07T06:24:37.418Z,45.15
2022-08-07T06:26:28.573Z,44.66
2022-08-07T06:29:04.238Z,44.80
2022-08-07T06:31:46.611Z,44.17
2022-08-07T06:34:21.839Z,44.27
2022-08-07T06:36:52.550Z,44.33
2022-08-07T06:40:17.802Z,44.06
2022-08-07T06:42:32.837Z,44.15
2022-08-07T06:45:35.825Z,43.40
2022-08-07T06:48:08.083Z,43.65
2022-08-07T06:50:47.890Z,43.59
2022-08-07T06:55:27.246Z,42.85
2022-08-07T06:56:15.996Z,42.95
2022-08-07T07:00:13.247Z,41.40
2022-08-07T07:01:50.994Z,40.73
2022-08-07T07:04:32.258Z,41.04
2022-08-07T07:07:10.703Z,40.49
2022-08-07T07:09:53.350Z,40.47
2022-08-07T07:12:31.274Z,39.66
2022-08-07T07:15:04.157Z,39.64
2022-08-07T07:17:45.218Z,39.91
2022-08-07T07:20:17.989Z,39.28
2022-08-07T07:24:07.062Z,39.35
2022-08-07T07:26:34.907Z,39.61
2022-08-07T07:28:48.244Z,39.22
2022-08-07T07:31:30.442Z,38.73
2022-08-07T07:34:13.490Z,39.13
2022-08-07T07:36:47.861Z,38.91
2022-08-07T07:39:22.769Z,38.64
2022-08-07T07:42:13.668Z,38.19
2022-08-07T07:44:49.869Z,38.49
2022-08-07T07:47:23.803Z,38.46
2022-08-07T07:50:32.676Z,38.33
2022-08-07T07:53:02.835Z,38.73
2022-08-07T07:55:37.828Z,38.15
2022-08-07T07:58:16.212Z,38.26
2022-08-07T08:00:53.781Z,38.64
2022-08-07T08:04:09.436Z,38.19
2022-08-07T08:06:17.708Z,38.16
2022-08-07T08:08:48.354Z,38.54
2022-08-07T08:11:18.200Z,38.07
2022-08-07T08:14:07.616Z,38.42
2022-08-07T08:16:37.913Z,38.24
2022-08-07T08:19:17.238Z,38.52
2022-08-07T08:22:14.095Z,38.78
2022-08-07T08:25:18.264Z,38.81
2022-08-07T08:27:56.744Z,38.60
2022-08-07T08:30:34.469Z,38.26
2022-08-07T08:33:10.397Z,38.07
2022-08-07T08:35:49.957Z,38.42
2022-08-07T08:38:29.421Z,38.58
2022-08-07T08:41:04.331Z,39.53
2022-08-07T08:43:42.053Z,39.32
2022-08-07T08:46:15.733Z,39.08
2022-08-07T08:48:51.017Z,39.08
2022-08-07T08:52:13.304Z,39.14
2022-08-07T08:54:26.506Z,39.93
2022-08-07T08:56:57.447Z,39.03
2022-08-07T08:59:30.339Z,39.23
2022-08-07T09:02:15.961Z,39.13
2022-08-07T09:05:11.035Z,39.38
2022-08-07T09:07:57.818Z,39.46
2022-08-07T09:10:35.326Z,39.33
2022-08-07T09:13:10.893Z,39.42
2022-08-07T09:16:22.202Z,39.66
2022-08-07T09:18:53.398Z,39.47
2022-08-07T09:22:22.339Z,38.54
2022-08-07T09:24:56.104Z,39.25
2022-08-07T09:27:59.899Z,38.84
2022-08-07T09:30:31.003Z,38.83
2022-08-07T09:33:16.611Z,38.67
2022-08-07T09:36:05.467Z,37.97
2022-08-07T09:38:41.614Z,37.66
2022-08-07T09:41:19.549Z,37.73
2022-08-07T09:44:06.895Z,37.80
2022-08-07T09:47:52.543Z,37.55
2022-08-07T09:50:02.271Z,37.33
2022-08-07T09:52:51.571Z,37.15
2022-08-07T09:55:29.274Z,36.92
2022-08-07T09:58:16.869Z,35.95
2022-08-07T10:01:03.438Z,35.55
2022-08-07T10:04:06.675Z,35.48
2022-08-07T10:06:55.663Z,35.94
2022-08-07T10:09:59.064Z,35.49
2022-08-07T10:12:52.904Z,35.18
2022-08-07T10:15:44.303Z,34.07
2022-08-07T10:18:27.085Z,32.93
2022-08-07T10:21:50.838Z,32.60
2022-08-07T18:50:45.430Z,25.17
2022-08-07T18:53:19.060Z,25.23
2022-08-07T18:56:01.282Z,25.40
2022-08-07T18:58:40.493Z,25.44
2022-08-07T19:02:18.899Z,25.47
2022-08-07T19:04:28.091Z,25.67
2022-08-07T19:07:08.265Z,26.19
2022-08-07T19:09:55.662Z,26.25
2022-08-07T19:12:32.461Z,26.19
2022-08-07T19:15:22.803Z,26.28
2022-08-07T19:18:11.540Z,26.08
2022-08-07T19:21:09.288Z,26.72
2022-08-07T19:23:57.882Z,26.87
2022-08-07T19:26:39.608Z,26.28
2022-08-07T19:31:05.966Z,26.61
2022-08-07T19:32:18.654Z,26.47
2022-08-07T19:34:59.685Z,26.79
2022-08-07T19:37:56.759Z,26.74
2022-08-07T19:40:31.697Z,27.06
2022-08-07T19:43:04.412Z,27.72
2022-08-07T19:46:06.305Z,27.47
2022-08-07T19:48:42.937Z,27.52
2022-08-07T19:51:20.472Z,27.67
2022-08-07T19:54:35.069Z,27.67
2022-08-07T19:58:01.869Z,27.41
2022-08-07T19:59:48.692Z,28.28
2022-08-07T20:02:21.086Z,28.45
2022-08-07T20:04:52.296Z,28.84
2022-08-07T20:07:46.479Z,28.96
2022-08-07T20:10:37.643Z,29.19
2022-08-07T20:13:15.906Z,29.24
2022-08-07T20:15:53.940Z,29.98
2022-08-07T20:18:32.189Z,29.67
2022-08-07T20:21:02.912Z,30.39
2022-08-07T20:23:42.857Z,30.46
2022-08-07T20:26:29.550Z,30.83
2022-08-07T20:29:10.696Z,31.21
2022-08-07T20:31:54.997Z,31.38
2022-08-07T20:34:49.286Z,31.58
2022-08-07T20:37:17.585Z,31.56
2022-08-07T20:40:03.159Z,32.17
2022-08-07T20:42:34.523Z,31.77
2022-08-07T20:45:32.840Z,32.18
2022-08-07T20:47:59.165Z,32.03
2022-08-07T20:50:30.564Z,32.03
2022-08-07T20:53:00.353Z,31.99
2022-08-07T20:55:31.987Z,32.83
2022-08-07T20:58:12.297Z,32.87
2022-08-07T21:00:56.154Z,32.90
2022-08-07T21:03:26.421Z,33.24
2022-08-07T21:05:58.470Z,33.63
2022-08-07T21:08:37.876Z,33.60
2022-08-07T21:11:12.044Z,34.16
2022-08-07T21:14:29.341Z,34.08
2022-08-07T21:16:56.121Z,34.44
2022-08-07T21:19:51.233Z,35.04
2022-08-07T21:22:28.231Z,35.19
2022-08-07T21:25:12.371Z,35.45
2022-08-07T21:27:53.779Z,35.61
2022-08-07T21:30:26.082Z,35.88
2022-08-07T21:33:09.457Z,35.58
2022-08-07T21:36:05.023Z,35.72
2022-08-07T21:38:38.371Z,36.29
2022-08-07T21:41:21.045Z,36.39
2022-08-07T21:43:58.102Z,36.21
2022-08-07T21:46:33.554Z,36.73
2022-08-07T21:49:14.515Z,37.19
2022-08-07T21:51:51.593Z,37.37
2022-08-07T21:54:30.296Z,37.67
2022-08-07T21:57:08.353Z,37.59
2022-08-07T22:00:05.539Z,37.58
2022-08-07T22:02:43.004Z,37.99
2022-08-07T22:05:43.838Z,38.03
2022-08-07T22:08:11.408Z,37.94
2022-08-07T22:10:42.497Z,38.69
2022-08-07T22:13:15.926Z,38.90
2022-08-07T22:16:42.409Z,39.20
2022-08-07T22:18:40.862Z,39.45
2022-08-07T22:21:16.218Z,39.23
2022-08-07T22:23:53.565Z,39.70
2022-08-07T22:26:24.296Z,39.42
2022-08-07T22:28:57.660Z,39.67
2022-08-07T22:31:58.948Z,40.11
2022-08-07T22:34:31.678Z,39.89
2022-08-07T22:37:13.101Z,39.48
2022-08-07T22:39:53.432Z,39.68
2022-08-07T22:42:25.559Z,39.60
2022-08-07T22:44:59.699Z,39.99
2022-08-07T22:47:49.481Z,40.48
2022-08-07T22:50:33.722Z,40.61
2022-08-07T22:54:06.871Z,40.66
2022-08-07T22:56:15.205Z,40.18
2022-08-07T22:59:00.553Z,40.57
2022-08-07T23:01:50.037Z,40.76
2022-08-07T23:04:33.863Z,41.78
2022-08-07T23:07:30.105Z,41.59
2022-08-07T23:10:38.014Z,41.60
2022-08-07T23:13:07.493Z,41.26
2022-08-07T23:16:05.522Z,41.49
2022-08-07T23:18:43.397Z,41.63
2022-08-07T23:21:21.611Z,41.70
2022-08-07T23:24:11.929Z,42.01
2022-08-07T23:26:54.798Z,41.71
2022-08-07T23:30:35.309Z,41.89
2022-08-07T23:34:22.101Z,42.32
2022-08-07T23:35:22.328Z,42.51
2022-08-07T23:38:09.605Z,42.85
2022-08-07T23:40:42.543Z,42.74
2022-08-07T23:43:40.758Z,43.32
2022-08-07T23:46:23.520Z,43.74
2022-08-07T23:49:08.028Z,43.60
2022-08-07T23:52:59.570Z,44.03
2022-08-07T23:54:44.000Z,44.47
2022-08-07T23:57:19.230Z,44.35
